createdAt,value
2022-09-24T00:01:56.555Z,95198.81
2022-09-24T00:04:26.070Z,95207.41
2022-09-24T00:06:55.565Z,95201.19
2022-09-24T00:09:22.359Z,95198.47
2022-09-24T00:11:50.326Z,95208.56
2022-09-24T00:14:17.368Z,95214.78
2022-09-24T00:16:45.228Z,95206.50
2022-09-24T00:19:13.566Z,95205.34
2022-09-24T00:21:41.499Z,95199.47
2022-09-24T00:24:12.481Z,95199.47
2022-09-24T00:26:38.986Z,95201.06
2022-09-24T00:29:07.125Z,95196.41
2022-09-24T00:31:33.901Z,95192.09
2022-09-24T00:34:00.671Z,95189.03
2022-09-24T00:36:27.828Z,95193.38
2022-09-24T00:38:57.483Z,95201.53
2022-09-24T00:41:30.557Z,95201.53
2022-09-24T00:43:57.812Z,95198.94
2022-09-24T00:46:41.237Z,95191.59
2022-09-24T00:49:13.754Z,95195.22
2022-09-24T00:51:42.876Z,95186.41
2022-09-24T00:54:21.161Z,95181.09
2022-09-24T00:56:52.403Z,95183.63
2022-09-24T00:59:23.741Z,95183.75
2022-09-24T01:01:52.584Z,95178.09
2022-09-24T01:04:21.150Z,95170.06
2022-09-24T01:06:51.984Z,95171.78
2022-09-24T01:09:22.590Z,95171.91
2022-09-24T01:11:53.734Z,95166.97
2022-09-24T01:14:20.174Z,95169.00
2022-09-24T01:16:52.314Z,95160.84
2022-09-24T01:19:49.107Z,95159.25
2022-09-24T01:22:40.500Z,95155.75
2022-09-24T01:25:28.556Z,95152.53
2022-09-24T01:28:10.039Z,95152.53
2022-09-24T01:30:40.229Z,95143.25
2022-09-24T01:33:16.090Z,95142.47
2022-09-24T01:35:51.795Z,95135.75
2022-09-24T01:38:29.046Z,95144.59
2022-09-24T01:40:59.489Z,95149.56
2022-09-24T01:43:28.032Z,95145.25
2022-09-24T01:46:00.736Z,95136.97
2022-09-24T01:48:28.685Z,95135.34
2022-09-24T01:51:02.681Z,95132.06
2022-09-24T01:53:40.304Z,95121.84
2022-09-24T01:56:33.896Z,95119.34
2022-09-24T01:59:12.870Z,95124.63
2022-09-24T02:02:27.410Z,95123.22
2022-09-24T02:05:05.347Z,95111.91
2022-09-24T02:07:37.810Z,95111.78
2022-09-24T02:10:04.782Z,95113.72
2022-09-24T02:12:37.133Z,95117.88
2022-09-24T02:15:45.046Z,95109.25
2022-09-24T02:18:16.673Z,95112.31
2022-09-24T02:20:44.550Z,95104.50
2022-09-24T02:23:11.712Z,95105.59
2022-09-24T02:25:43.854Z,95100.50
2022-09-24T02:28:10.594Z,95094.28
2022-09-24T02:30:57.791Z,95091.09
2022-09-24T02:33:27.043Z,95087.88
2022-09-24T02:35:53.685Z,95093.66
2022-09-24T02:38:20.280Z,95091.28
2022-09-24T02:40:48.362Z,95098.97
2022-09-24T02:43:14.784Z,95092.34
2022-09-24T02:45:41.339Z,95083.19
2022-09-24T02:48:07.989Z,95080.03
2022-09-24T02:50:34.551Z,95074.91
2022-09-24T02:53:01.376Z,95067.41
2022-09-24T02:55:28.106Z,95076.69
2022-09-24T02:57:54.654Z,95075.91
2022-09-24T03:00:21.153Z,95067.75
2022-09-24T03:02:47.960Z,95073.97
2022-09-24T03:05:14.928Z,95072.84
2022-09-24T03:07:41.427Z,95066.28
2022-09-24T03:10:08.482Z,95068.66
2022-09-24T03:12:35.070Z,95067.88
2022-09-24T03:15:01.601Z,95065.94
2022-09-24T03:17:28.153Z,95072.19
2022-09-24T03:19:54.713Z,95073.78
2022-09-24T03:22:21.235Z,95084.63
2022-09-24T03:24:47.942Z,95086.56
2022-09-24T03:27:14.417Z,95081.59
2022-09-24T03:29:40.977Z,95076.16
2022-09-24T03:32:07.517Z,95075.38
2022-09-24T03:34:34.049Z,95071.50
2022-09-24T03:37:00.597Z,95080.47
2022-09-24T03:39:27.130Z,95075.50
2022-09-24T03:41:53.564Z,95080.59
2022-09-24T03:44:20.120Z,95067.00
2022-09-24T03:46:46.630Z,95069.41
2022-09-24T03:49:13.127Z,95078.81
2022-09-24T03:51:39.694Z,95069.53
2022-09-24T03:54:06.192Z,95061.84
2022-09-24T03:56:32.774Z,95059.59
2022-09-24T03:58:59.373Z,95065.47
2022-09-24T04:01:25.941Z,95066.75
2022-09-24T04:03:53.244Z,95055.22
2022-09-24T04:06:25.560Z,95062.22
2022-09-24T04:08:52.433Z,95060.75
2022-09-24T04:11:19.147Z,95053.88
2022-09-24T04:13:45.636Z,95054.34
2022-09-24T04:16:12.204Z,95051.28
2022-09-24T04:18:39.503Z,95045.16
2022-09-24T04:21:06.832Z,95044.84
2022-09-24T04:23:33.352Z,95042.91
2022-09-24T04:26:00.191Z,95048.78
2022-09-24T04:28:26.683Z,95041.44
2022-09-24T04:30:53.185Z,95043.84
2022-09-24T04:33:19.781Z,95042.69
2022-09-24T04:35:46.536Z,95036.13
2022-09-24T04:38:13.552Z,95030.69
2022-09-24T04:40:40.177Z,95025.69
2022-09-24T04:43:07.153Z,95031.13
2022-09-24T04:45:33.965Z,95033.53
2022-09-24T04:48:00.860Z,95030.47
2022-09-24T04:50:29.310Z,95032.84
2022-09-24T04:52:56.581Z,95043.41
2022-09-24T04:55:23.930Z,95042.41
2022-09-24T04:57:50.491Z,95029.25
2022-09-24T05:00:19.664Z,95042.19
2022-09-24T05:02:46.292Z,95040.38
2022-09-24T05:05:13.511Z,95038.94
2022-09-24T05:07:42.026Z,95035.50
2022-09-24T05:10:09.131Z,95038.38
2022-09-24T05:12:35.604Z,95033.84
2022-09-24T05:15:03.924Z,95024.22
2022-09-24T05:17:30.292Z,95027.50
2022-09-24T05:19:56.853Z,95028.19
2022-09-24T05:22:24.432Z,95029.88
2022-09-24T05:24:51.005Z,95021.03
2022-09-24T05:27:17.588Z,95023.44
2022-09-24T05:29:44.118Z,95025.50
2022-09-24T05:32:13.545Z,95039.91
2022-09-24T05:34:40.153Z,95040.38
2022-09-24T05:37:07.238Z,95036.97
2022-09-24T05:39:34.446Z,95039.03
2022-09-24T05:42:01.568Z,95035.97
2022-09-24T05:44:28.038Z,95031.75
2022-09-24T05:46:54.561Z,95031.88
2022-09-24T05:49:21.109Z,95039.03
2022-09-24T05:51:51.439Z,95030.16
2022-09-24T05:54:19.149Z,95040.38
2022-09-24T05:56:46.232Z,95031.53
2022-09-24T05:59:13.290Z,95037.56
2022-09-24T06:01:40.100Z,95032.22
2022-09-24T06:04:09.000Z,95035.03
2022-09-24T06:06:36.114Z,95039.47
2022-09-24T06:09:03.565Z,95040.72
2022-09-24T06:11:36.359Z,95041.16
2022-09-24T06:14:06.503Z,95043.66
2022-09-24T06:16:33.995Z,95039.13
2022-09-24T06:19:01.089Z,95036.50
2022-09-24T06:21:28.090Z,95031.28
2022-09-24T06:23:54.573Z,95022.41
2022-09-24T06:26:21.150Z,95030.69
2022-09-24T06:28:47.725Z,95022.97
2022-09-24T06:31:14.365Z,95017.63
2022-09-24T06:33:40.975Z,95017.72
2022-09-24T06:36:07.794Z,95027.25
2022-09-24T06:38:34.417Z,95038.72
2022-09-24T06:41:02.862Z,95031.88
2022-09-24T06:43:30.347Z,95034.81
2022-09-24T06:45:58.117Z,95032.28
2022-09-24T06:48:25.167Z,95036.03
2022-09-24T06:50:52.073Z,95029.19
2022-09-24T06:53:18.901Z,95038.38
2022-09-24T06:55:47.041Z,95029.25
2022-09-24T06:58:16.597Z,95029.88
2022-09-24T07:00:49.887Z,95035.53
2022-09-24T07:03:16.541Z,95041.97
2022-09-24T07:05:43.898Z,95043.75
2022-09-24T07:08:11.180Z,95046.31
2022-09-24T07:10:37.699Z,95039.47
2022-09-24T07:13:04.272Z,95046.69
2022-09-24T07:15:30.864Z,95050.75
2022-09-24T07:17:57.762Z,95054.44
2022-09-24T07:20:25.713Z,95044.47
2022-09-24T07:22:52.281Z,95041.13
2022-09-24T07:25:18.829Z,95047.13
2022-09-24T07:27:45.390Z,95050.50
2022-09-24T07:30:12.834Z,95050.69
2022-09-24T07:32:39.382Z,95059.03
2022-09-24T07:35:06.388Z,95058.41
2022-09-24T07:37:33.260Z,95062.44
2022-09-24T07:40:00.174Z,95061.03
2022-09-24T07:42:26.678Z,95059.25
2022-09-24T07:44:53.292Z,95060.13
2022-09-24T07:47:19.972Z,95057.53
2022-09-24T07:49:46.568Z,95057.25
2022-09-24T07:52:13.138Z,95062.44
2022-09-24T07:54:39.834Z,95068.06
2022-09-24T07:57:11.201Z,95080.69
2022-09-24T07:59:37.923Z,95076.94
2022-09-24T08:02:13.871Z,95077.09
2022-09-24T08:04:40.623Z,95080.41
2022-09-24T08:07:07.251Z,95081.38
2022-09-24T08:09:33.879Z,95075.75
2022-09-24T08:12:00.648Z,95082.16
2022-09-24T08:14:27.157Z,95089.78
2022-09-24T08:16:53.632Z,95095.47
2022-09-24T08:19:20.291Z,95094.81
2022-09-24T08:21:46.815Z,95092.56
2022-09-24T08:24:13.415Z,95092.69
2022-09-24T08:26:40.096Z,95088.50
2022-09-24T08:29:06.735Z,95092.09
2022-09-24T08:31:33.276Z,95092.94
2022-09-24T08:33:59.925Z,95090.28
2022-09-24T08:36:26.652Z,95098.56
2022-09-24T08:38:54.274Z,95087.59
2022-09-24T08:41:56.597Z,95085.22
2022-09-24T08:44:30.429Z,95089.19
2022-09-24T08:47:01.915Z,95087.22
2022-09-24T08:49:41.421Z,95093.06
2022-09-24T08:52:30.784Z,95097.69
2022-09-24T08:55:00.814Z,95105.50
2022-09-24T08:57:28.340Z,95100.75
2022-09-24T08:59:55.031Z,95102.63
2022-09-24T09:02:27.371Z,95106.09
2022-09-24T09:05:02.628Z,95103.66
2022-09-24T09:07:52.747Z,95113.03
2022-09-24T09:10:24.396Z,95114.19
2022-09-24T09:12:56.919Z,95119.66
2022-09-24T09:15:23.506Z,95118.53
2022-09-24T09:18:12.866Z,95122.75
2022-09-24T09:20:42.787Z,95124.00
2022-09-24T09:23:37.089Z,95123.28
2022-09-24T09:26:03.711Z,95118.63
2022-09-24T09:28:30.325Z,95122.59
2022-09-24T09:30:56.835Z,95120.34
2022-09-24T09:33:45.157Z,95130.56
2022-09-24T09:36:20.907Z,95112.69
2022-09-24T09:39:16.191Z,95114.31
2022-09-24T09:42:03.755Z,95119.88
2022-09-24T09:44:37.348Z,95122.34
2022-09-24T09:47:26.578Z,95127.09
2022-09-24T09:49:57.714Z,95118.94
2022-09-24T09:52:28.563Z,95115.47
2022-09-24T09:54:55.133Z,95122.22
2022-09-24T09:57:23.919Z,95114.03
2022-09-24T09:59:53.222Z,95122.78
2022-09-24T10:02:31.416Z,95117.75
2022-09-24T10:05:00.962Z,95106.94
2022-09-24T10:07:28.092Z,95112.88
2022-09-24T10:10:00.433Z,95114.97
2022-09-24T10:12:27.401Z,95110.75
2022-09-24T10:15:15.012Z,95112.72
2022-09-24T10:17:42.768Z,95116.38
2022-09-24T10:20:17.571Z,95119.59
2022-09-24T10:22:51.331Z,95115.75
2022-09-24T10:25:23.036Z,95125.19
2022-09-24T10:27:49.820Z,95118.56
2022-09-24T10:30:17.175Z,95121.75
2022-09-24T10:32:44.234Z,95115.81
2022-09-24T10:35:27.956Z,95126.81
2022-09-24T10:37:56.963Z,95125.28
2022-09-24T10:40:43.868Z,95123.31
2022-09-24T10:43:17.402Z,95122.16
2022-09-24T10:45:44.006Z,95116.00
2022-09-24T10:48:24.742Z,95120.34
2022-09-24T10:51:21.514Z,95121.13
2022-09-24T10:54:06.154Z,95115.31
2022-09-24T10:56:46.157Z,95108.66
2022-09-24T10:59:34.788Z,95116.56
2022-09-24T11:02:13.331Z,95112.69
2022-09-24T11:05:02.530Z,95108.03
2022-09-24T11:07:44.067Z,95113.56
2022-09-24T11:10:19.513Z,95116.38
2022-09-24T11:12:52.351Z,95122.72
2022-09-24T11:15:32.455Z,95115.34
2022-09-24T11:18:20.857Z,95114.25
2022-09-24T11:21:32.248Z,95119.78
2022-09-24T11:24:08.024Z,95116.31
2022-09-24T11:27:05.914Z,95111.19
2022-09-24T11:30:02.082Z,95116.28
2022-09-24T11:33:09.511Z,95121.78
2022-09-24T11:35:56.867Z,95120.63
2022-09-24T11:38:32.373Z,95115.91
2022-09-24T11:41:11.648Z,95112.00
2022-09-24T11:43:59.262Z,95108.41
2022-09-24T11:46:43.491Z,95102.91
2022-09-24T11:49:34.666Z,95109.13
2022-09-24T11:52:27.508Z,95103.22
2022-09-24T11:55:05.931Z,95104.75
2022-09-24T11:57:38.438Z,95101.59
2022-09-24T12:00:12.333Z,95100.75
2022-09-24T12:02:52.523Z,95099.13
2022-09-24T12:05:33.970Z,95095.97
2022-09-24T12:08:23.007Z,95097.94
2022-09-24T12:10:55.089Z,95091.25
2022-09-24T12:13:30.867Z,95092.84
2022-09-24T12:16:02.755Z,95091.34
2022-09-24T12:18:38.564Z,95085.09
2022-09-24T12:21:15.490Z,95083.53
2022-09-24T12:23:46.156Z,95078.13
2022-09-24T12:26:16.224Z,95081.75
2022-09-24T12:29:17.861Z,95077.47
2022-09-24T12:32:06.446Z,95077.19
2022-09-24T12:35:07.717Z,95082.75
2022-09-24T12:37:40.822Z,95087.19
2022-09-24T12:40:19.199Z,95078.94
2022-09-24T12:42:54.380Z,95072.31
2022-09-24T12:45:22.981Z,95075.50
2022-09-24T12:47:54.088Z,95085.72
2022-09-24T12:50:27.175Z,95070.75
2022-09-24T12:52:54.214Z,95071.94
2022-09-24T12:55:27.052Z,95078.94
2022-09-24T12:58:03.260Z,95083.97
2022-09-24T13:00:44.467Z,95073.69
2022-09-24T13:03:39.069Z,95083.06
2022-09-24T13:06:22.965Z,95076.66
2022-09-24T13:08:49.602Z,95070.78
2022-09-24T13:11:27.423Z,95066.03
2022-09-24T13:14:20.881Z,95068.72
2022-09-24T13:16:51.909Z,95055.34
2022-09-24T13:19:34.309Z,95065.19
2022-09-24T13:22:01.918Z,95057.72
2022-09-24T13:24:44.872Z,95060.91
2022-09-24T13:27:35.302Z,95060.53
2022-09-24T13:30:18.427Z,95065.66
2022-09-24T13:32:58.872Z,95057.44
2022-09-24T13:35:50.261Z,95055.56
2022-09-24T13:38:23.884Z,95054.41
2022-09-24T13:40:57.045Z,95059.94
2022-09-24T13:43:40.855Z,95061.91
2022-09-24T13:46:14.823Z,95061.16
2022-09-24T13:48:49.175Z,95055.75
2022-09-24T13:51:18.130Z,95054.22
2022-09-24T13:53:55.881Z,95050.78
2022-09-24T13:56:23.329Z,95053.56
2022-09-24T13:58:50.127Z,95050.78
2022-09-24T14:01:26.970Z,95054.31
2022-09-24T14:03:57.056Z,95053.09
2022-09-24T14:06:37.075Z,95048.31
2022-09-24T14:09:25.315Z,95053.44
2022-09-24T14:11:54.643Z,95045.13
2022-09-24T14:14:23.280Z,95041.53
2022-09-24T14:16:50.594Z,95048.94
2022-09-24T14:19:17.192Z,95047.34
2022-09-24T14:21:51.407Z,95045.72
2022-09-24T14:24:27.368Z,95045.69
2022-09-24T14:26:58.877Z,95047.22
2022-09-24T14:29:48.069Z,95045.28
2022-09-24T14:32:33.288Z,95035.44
2022-09-24T14:35:05.653Z,95038.22
2022-09-24T14:37:45.796Z,95035.06
2022-09-24T14:40:17.940Z,95040.16
2022-09-24T14:42:48.530Z,95040.53
2022-09-24T14:45:23.840Z,95042.81
2022-09-24T14:48:05.090Z,95037.66
2022-09-24T14:50:41.077Z,95036.03
2022-09-24T14:53:21.194Z,95032.47
2022-09-24T14:55:48.267Z,95034.41
2022-09-24T14:58:26.652Z,95045.75
2022-09-24T15:01:17.499Z,95037.03
2022-09-24T15:03:51.571Z,95039.78
2022-09-24T15:06:20.357Z,95035.44
2022-09-24T15:08:59.210Z,95031.88
2022-09-24T15:11:27.516Z,95030.66
2022-09-24T15:14:01.610Z,95034.53
2022-09-24T15:16:33.631Z,95034.91
2022-09-24T15:19:21.103Z,95025.41
2022-09-24T15:21:49.495Z,95036.78
2022-09-24T15:24:17.553Z,95036.38
2022-09-24T15:26:45.520Z,95038.53
2022-09-24T15:29:20.826Z,95035.47
2022-09-24T15:31:47.615Z,95048.41
2022-09-24T15:34:19.060Z,95040.91
2022-09-24T15:36:53.533Z,95040.88
2022-09-24T15:39:20.102Z,95035.31
2022-09-24T15:41:46.700Z,95044.31
2022-09-24T15:44:22.339Z,95041.94
2022-09-24T15:46:49.933Z,95040.31
2022-09-24T15:49:17.876Z,95036.72
2022-09-24T15:51:44.420Z,95043.75
2022-09-24T15:54:10.964Z,95043.34
2022-09-24T15:56:40.003Z,95032.69
2022-09-24T15:59:13.832Z,95038.91
2022-09-24T16:01:41.219Z,95032.56
2022-09-24T16:04:11.325Z,95032.91
2022-09-24T16:06:38.595Z,95026.59
2022-09-24T16:09:05.197Z,95031.22
2022-09-24T16:11:31.963Z,95024.50
2022-09-24T16:13:58.536Z,95023.69
2022-09-24T16:16:25.214Z,95025.22
2022-09-24T16:18:51.957Z,95016.16
2022-09-24T16:21:18.543Z,95012.97
2022-09-24T16:23:45.079Z,95014.88
2022-09-24T16:26:11.725Z,95010.16
2022-09-24T16:28:38.234Z,95014.78
2022-09-24T16:31:06.407Z,95019.84
2022-09-24T16:33:38.009Z,95018.19
2022-09-24T16:36:06.447Z,95016.19
2022-09-24T16:38:37.757Z,95012.22
2022-09-24T16:41:05.943Z,95023.53
2022-09-24T16:43:33.092Z,95016.31
2022-09-24T16:46:08.487Z,95018.72
2022-09-24T16:48:35.220Z,95020.69
2022-09-24T16:51:09.530Z,95019.47
2022-09-24T16:53:36.746Z,95031.16
2022-09-24T16:56:21.085Z,95030.34
2022-09-24T16:58:47.576Z,95025.63
2022-09-24T17:01:16.533Z,95034.22
2022-09-24T17:03:43.767Z,95041.31
2022-09-24T17:06:22.011Z,95034.97
2022-09-24T17:08:48.761Z,95039.66
2022-09-24T17:11:16.021Z,95029.84
2022-09-24T17:16:40.932Z,95042.63
2022-09-24T17:19:11.419Z,95045.72
2022-09-24T17:21:40.598Z,95049.19
2022-09-24T17:24:07.631Z,95043.31
2022-09-24T17:26:34.176Z,95044.84
2022-09-24T17:29:00.742Z,95044.84
2022-09-24T17:31:27.926Z,95042.47
2022-09-24T17:33:59.339Z,95054.94
2022-09-24T17:36:27.485Z,95059.28
2022-09-24T17:38:53.923Z,95048.47
2022-09-24T17:41:20.818Z,95052.13
2022-09-24T17:43:47.372Z,95051.78
2022-09-24T17:46:16.983Z,95048.59
2022-09-24T17:48:46.253Z,95054.06
2022-09-24T17:51:24.282Z,95047.03
2022-09-24T17:53:52.804Z,95053.22
2022-09-24T17:56:21.221Z,95050.06
2022-09-24T17:58:47.914Z,95055.09
2022-09-24T18:01:18.406Z,95056.28
2022-09-24T18:03:45.807Z,95062.91
2022-09-24T18:06:13.975Z,95061.66
2022-09-24T18:08:45.139Z,95069.09
2022-09-24T18:11:13.110Z,95064.75
2022-09-24T18:13:40.111Z,95059.66
2022-09-24T18:16:12.050Z,95068.22
2022-09-24T18:18:39.262Z,95062.34
2022-09-24T18:21:08.883Z,95063.84
2022-09-24T18:23:35.520Z,95062.69
2022-09-24T18:26:13.098Z,95065.78
2022-09-24T18:28:41.170Z,95062.63
2022-09-24T18:31:09.859Z,95057.16
2022-09-24T18:33:38.887Z,95064.59
2022-09-24T18:36:08.487Z,95053.63
2022-09-24T18:38:35.624Z,95063.78
2022-09-24T18:41:14.463Z,95059.03
2022-09-24T18:43:42.137Z,95066.44
2022-09-24T18:46:11.499Z,95072.28
2022-09-24T18:48:39.386Z,95075.03
2022-09-24T18:51:07.597Z,95069.13
2022-09-24T18:53:34.401Z,95075.97
2022-09-24T18:56:06.250Z,95082.00
2022-09-24T18:58:33.333Z,95075.75
2022-09-24T19:01:01.281Z,95078.50
2022-09-24T19:03:29.062Z,95077.72
2022-09-24T19:06:01.782Z,95081.22
2022-09-24T19:08:28.736Z,95080.44
2022-09-24T19:10:55.283Z,95080.44
2022-09-24T19:13:26.138Z,95075.31
2022-09-24T19:15:53.098Z,95076.47
2022-09-24T19:18:19.645Z,95087.78
2022-09-24T19:20:47.416Z,95079.94
2022-09-24T19:23:14.473Z,95077.91
2022-09-24T19:25:41.979Z,95076.34
2022-09-24T19:28:11.402Z,95077.50
2022-09-24T19:30:43.430Z,95076.25
2022-09-24T19:33:11.653Z,95071.13
2022-09-24T19:35:38.062Z,95069.31
2022-09-24T19:38:04.724Z,95080.41
2022-09-24T19:40:31.314Z,95081.22
2022-09-24T19:42:57.869Z,95088.59
2022-09-24T19:45:24.354Z,95085.44
2022-09-24T19:47:50.902Z,95081.94
2022-09-24T19:50:17.942Z,95086.63
2022-09-24T19:52:44.728Z,95079.56
2022-09-24T19:55:11.292Z,95072.94
2022-09-24T19:57:37.761Z,95081.16
2022-09-24T20:00:04.749Z,95077.22
2022-09-24T20:02:31.464Z,95073.34
2022-09-24T20:04:58.084Z,95074.50
2022-09-24T20:07:24.555Z,95074.13
2022-09-24T20:09:51.080Z,95070.63
2022-09-24T20:12:17.547Z,95076.09
2022-09-24T20:14:44.023Z,95070.19
2022-09-24T20:17:11.046Z,95072.13
2022-09-24T20:19:37.976Z,95067.81
2022-09-24T20:22:06.643Z,95067.38
2022-09-24T20:24:38.022Z,95074.00
2022-09-24T20:27:04.515Z,95070.03
2022-09-24T20:29:31.049Z,95071.19
2022-09-24T20:31:57.526Z,95075.44
2022-09-24T20:34:30.520Z,95064.03
2022-09-24T20:36:57.058Z,95076.16
2022-09-24T20:39:23.557Z,95062.03
2022-09-24T20:41:50.200Z,95063.19
2022-09-24T20:44:16.964Z,95066.72
2022-09-24T20:46:43.709Z,95064.34
2022-09-24T20:49:17.373Z,95068.25
2022-09-24T20:51:44.009Z,95065.50
2022-09-24T20:54:10.564Z,95067.44
2022-09-24T20:56:37.192Z,95065.88
2022-09-24T20:59:03.787Z,95065.03
2022-09-24T21:01:30.390Z,95065.03
2022-09-24T21:03:56.929Z,95070.09
2022-09-24T21:06:23.708Z,95065.75
2022-09-24T21:08:51.216Z,95068.50
2022-09-24T21:11:23.075Z,95063.38
2022-09-24T21:13:52.048Z,95067.72
2022-09-24T21:16:21.318Z,95075.16
2022-09-24T21:18:49.325Z,95075.94
2022-09-24T21:21:17.155Z,95066.94
2022-09-24T21:23:45.228Z,95073.19
2022-09-24T21:26:13.136Z,95074.53
2022-09-24T21:28:40.540Z,95074.31
2022-09-24T21:31:07.552Z,95064.19
2022-09-24T21:33:34.797Z,95071.25
2022-09-24T21:36:06.605Z,95066.94
2022-09-24T21:38:33.851Z,95068.50
2022-09-24T21:41:00.473Z,95059.50
2022-09-24T21:43:32.354Z,95070.09
2022-09-24T21:46:03.813Z,95062.66
2022-09-24T21:48:30.681Z,95073.63
2022-09-24T21:51:18.162Z,95067.72
2022-09-24T21:53:45.016Z,95072.03
2022-09-24T21:56:11.549Z,95078.66
2022-09-24T21:58:38.152Z,95076.72
2022-09-24T22:01:15.472Z,95075.16
2022-09-24T22:03:42.107Z,95070.81
2022-09-24T22:06:08.642Z,95070.81
2022-09-24T22:08:35.201Z,95073.53
2022-09-24T22:11:04.935Z,95067.28
2022-09-24T22:13:32.279Z,95068.44
2022-09-24T22:15:59.811Z,95056.25
2022-09-24T22:18:27.687Z,95061.00
2022-09-24T22:20:58.637Z,95053.16
2022-09-24T22:23:25.197Z,95056.25
2022-09-24T22:25:56.323Z,95047.25
2022-09-24T22:28:23.987Z,95055.47
2022-09-24T22:30:58.596Z,95046.03
2022-09-24T22:33:26.043Z,95044.44
2022-09-24T22:35:55.738Z,95040.47
2022-09-24T22:38:22.310Z,95035.81
2022-09-24T22:40:49.615Z,95047.13
2022-09-24T22:43:16.121Z,95045.09
2022-09-24T22:45:42.726Z,95042.72
2022-09-24T22:48:10.181Z,95040.34
2022-09-24T22:50:36.814Z,95041.84
2022-09-24T22:53:03.460Z,95035.59
2022-09-24T22:55:30.138Z,95032.78
2022-09-24T22:57:56.745Z,95028.03
2022-09-24T23:00:23.395Z,95030.66
2022-09-24T23:02:49.907Z,95028.56
2022-09-24T23:05:16.569Z,95028.84
2022-09-24T23:07:43.171Z,95032.22
2022-09-24T23:10:09.896Z,95025.44
2022-09-24T23:12:36.385Z,95038.16
2022-09-24T23:15:03.390Z,95039.91
2022-09-24T23:17:29.889Z,95038.91
2022-09-24T23:19:56.564Z,95041.94
2022-09-24T23:22:23.228Z,95042.13
2022-09-24T23:24:50.105Z,95044.31
2022-09-24T23:27:18.178Z,95047.31
2022-09-24T23:29:44.901Z,95041.03
2022-09-24T23:32:12.599Z,95040.69
2022-09-24T23:34:39.130Z,95043.69
2022-09-24T23:37:05.788Z,95043.94
2022-09-24T23:39:32.796Z,95044.56
2022-09-24T23:41:59.795Z,95039.69
2022-09-24T23:44:26.285Z,95044.63
2022-09-24T23:46:52.805Z,95047.13
2022-09-24T23:49:19.380Z,95043.88
2022-09-24T23:51:45.854Z,95048.34
2022-09-24T23:54:12.484Z,95050.16
2022-09-24T23:56:38.983Z,95043.41
2022-09-24T23:59:05.568Z,95042.84
